sensor_id;sensor_type;location;lat;lon;timestamp;temperature;humidity
12819;DHT22;6474;53.474;9.894;2023-11-18T00:00:09;4.50;92.60
12819;DHT22;6474;53.474;9.894;2023-11-18T00:02:41;4.50;92.60
12819;DHT22;6474;53.474;9.894;2023-11-18T00:05:11;4.60;92.60
12819;DHT22;6474;53.474;9.894;2023-11-18T00:07:39;4.60;92.60
12819;DHT22;6474;53.474;9.894;2023-11-18T00:10:09;4.50;92.50
12819;DHT22;6474;53.474;9.894;2023-11-18T00:12:37;4.60;92.60
12819;DHT22;6474;53.474;9.894;2023-11-18T00:15:08;4.60;92.50
12819;DHT22;6474;53.474;9.894;2023-11-18T00:17:38;4.60;92.60
12819;DHT22;6474;53.474;9.894;2023-11-18T00:20:09;4.60;92.60
12819;DHT22;6474;53.474;9.894;2023-11-18T00:22:39;4.50;92.50
12819;DHT22;6474;53.474;9.894;2023-11-18T00:25:08;4.60;92.60
12819;DHT22;6474;53.474;9.894;2023-11-18T00:27:37;4.50;92.50
12819;DHT22;6474;53.474;9.894;2023-11-18T00:30:06;4.60;92.60
12819;DHT22;6474;53.474;9.894;2023-11-18T00:32:37;4.60;92.60
12819;DHT22;6474;53.474;9.894;2023-11-18T00:35:08;4.60;92.60
12819;DHT22;6474;53.474;9.894;2023-11-18T00:37:37;4.50;92.50
12819;DHT22;6474;53.474;9.894;2023-11-18T00:40:07;4.50;92.50
12819;DHT22;6474;53.474;9.894;2023-11-18T00:42:36;4.50;92.60
12819;DHT22;6474;53.474;9.894;2023-11-18T00:45:05;4.50;92.50
12819;DHT22;6474;53.474;9.894;2023-11-18T00:47:34;4.50;92.60
12819;DHT22;6474;53.474;9.894;2023-11-18T00:50:02;4.50;92.60
12819;DHT22;6474;53.474;9.894;2023-11-18T00:52:32;4.50;92.60
12819;DHT22;6474;53.474;9.894;2023-11-18T00:55:00;4.50;92.60
12819;DHT22;6474;53.474;9.894;2023-11-18T00:57:28;4.50;92.60
12819;DHT22;6474;53.474;9.894;2023-11-18T00:59:55;4.50;92.60
12819;DHT22;6474;53.474;9.894;2023-11-18T01:02:24;4.50;92.60
12819;DHT22;6474;53.474;9.894;2023-11-18T01:04:53;4.50;92.60
12819;DHT22;6474;53.474;9.894;2023-11-18T01:07:22;4.50;92.50
12819;DHT22;6474;53.474;9.894;2023-11-18T01:09:51;4.50;92.60
12819;DHT22;6474;53.474;9.894;2023-11-18T01:12:19;4.50;92.50
12819;DHT22;6474;53.474;9.894;2023-11-18T01:14:47;4.50;92.60
12819;DHT22;6474;53.474;9.894;2023-11-18T01:17:15;4.50;92.60
12819;DHT22;6474;53.474;9.894;2023-11-18T01:19:43;4.50;92.60
12819;DHT22;6474;53.474;9.894;2023-11-18T01:22:11;4.50;92.60
12819;DHT22;6474;53.474;9.894;2023-11-18T01:24:39;4.40;92.60
12819;DHT22;6474;53.474;9.894;2023-11-18T01:27:09;4.50;92.60
12819;DHT22;6474;53.474;9.894;2023-11-18T01:29:37;4.50;92.60
12819;DHT22;6474;53.474;9.894;2023-11-18T01:32:06;4.50;92.60
12819;DHT22;6474;53.474;9.894;2023-11-18T01:34:36;4.50;92.60
12819;DHT22;6474;53.474;9.894;2023-11-18T01:37:06;4.40;92.50
12819;DHT22;6474;53.474;9.894;2023-11-18T01:39:34;4.50;92.50
12819;DHT22;6474;53.474;9.894;2023-11-18T01:42:03;4.50;92.60
12819;DHT22;6474;53.474;9.894;2023-11-18T01:44:32;4.40;92.50
12819;DHT22;6474;53.474;9.894;2023-11-18T01:47:02;4.40;92.50
12819;DHT22;6474;53.474;9.894;2023-11-18T01:49:33;4.40;92.80
12819;DHT22;6474;53.474;9.894;2023-11-18T01:52:04;4.40;92.50
12819;DHT22;6474;53.474;9.894;2023-11-18T01:54:36;4.30;92.40
12819;DHT22;6474;53.474;9.894;2023-11-18T01:57:05;4.40;92.50
12819;DHT22;6474;53.474;9.894;2023-11-18T01:59:37;4.30;92.40
12819;DHT22;6474;53.474;9.894;2023-11-18T02:02:07;4.30;92.40
12819;DHT22;6474;53.474;9.894;2023-11-18T02:04:35;4.30;92.40
12819;DHT22;6474;53.474;9.894;2023-11-18T02:07:04;4.30;92.40
12819;DHT22;6474;53.474;9.894;2023-11-18T02:09:36;4.20;92.40
12819;DHT22;6474;53.474;9.894;2023-11-18T02:12:11;4.20;92.50
12819;DHT22;6474;53.474;9.894;2023-11-18T02:14:43;4.20;92.50
12819;DHT22;6474;53.474;9.894;2023-11-18T02:17:14;4.20;92.60
12819;DHT22;6474;53.474;9.894;2023-11-18T02:19:42;4.20;92.60
12819;DHT22;6474;53.474;9.894;2023-11-18T02:22:11;4.20;92.60
12819;DHT22;6474;53.474;9.894;2023-11-18T02:24:40;4.20;92.60
12819;DHT22;6474;53.474;9.894;2023-11-18T02:27:10;4.30;92.60
12819;DHT22;6474;53.474;9.894;2023-11-18T02:29:42;4.30;92.60
12819;DHT22;6474;53.474;9.894;2023-11-18T02:32:15;4.30;92.60
12819;DHT22;6474;53.474;9.894;2023-11-18T02:34:55;4.30;92.60
12819;DHT22;6474;53.474;9.894;2023-11-18T02:37:25;4.30;92.60
12819;DHT22;6474;53.474;9.894;2023-11-18T02:39:59;4.30;92.50
12819;DHT22;6474;53.474;9.894;2023-11-18T02:42:31;4.30;92.50
12819;DHT22;6474;53.474;9.894;2023-11-18T02:44:59;4.30;92.50
12819;DHT22;6474;53.474;9.894;2023-11-18T02:47:27;4.30;92.50
12819;DHT22;6474;53.474;9.894;2023-11-18T02:49:55;4.30;92.50
12819;DHT22;6474;53.474;9.894;2023-11-18T02:52:29;4.30;92.50
12819;DHT22;6474;53.474;9.894;2023-11-18T02:54:57;4.30;92.50
12819;DHT22;6474;53.474;9.894;2023-11-18T02:57:25;4.30;92.50
12819;DHT22;6474;53.474;9.894;2023-11-18T02:59:54;4.30;92.50
12819;DHT22;6474;53.474;9.894;2023-11-18T03:02:22;4.30;92.60
12819;DHT22;6474;53.474;9.894;2023-11-18T03:04:51;4.30;92.50
12819;DHT22;6474;53.474;9.894;2023-11-18T03:07:19;4.30;92.60
12819;DHT22;6474;53.474;9.894;2023-11-18T03:09:47;4.30;92.90
12819;DHT22;6474;53.474;9.894;2023-11-18T03:12:15;4.30;92.60
12819;DHT22;6474;53.474;9.894;2023-11-18T03:14:43;4.30;92.60
12819;DHT22;6474;53.474;9.894;2023-11-18T03:17:13;4.30;92.60
12819;DHT22;6474;53.474;9.894;2023-11-18T03:19:41;4.30;92.60
12819;DHT22;6474;53.474;9.894;2023-11-18T03:22:10;4.30;92.60
12819;DHT22;6474;53.474;9.894;2023-11-18T03:24:39;4.40;92.60
12819;DHT22;6474;53.474;9.894;2023-11-18T03:27:07;4.40;92.60
12819;DHT22;6474;53.474;9.894;2023-11-18T03:29:36;4.30;92.60
12819;DHT22;6474;53.474;9.894;2023-11-18T03:32:05;4.40;92.70
12819;DHT22;6474;53.474;9.894;2023-11-18T03:34:34;4.40;92.70
12819;DHT22;6474;53.474;9.894;2023-11-18T03:37:02;4.30;92.60
12819;DHT22;6474;53.474;9.894;2023-11-18T03:39:30;4.40;92.60
12819;DHT22;6474;53.474;9.894;2023-11-18T03:41:58;4.30;92.60
12819;DHT22;6474;53.474;9.894;2023-11-18T03:44:26;4.40;92.60
12819;DHT22;6474;53.474;9.894;2023-11-18T03:46:54;4.30;92.60
12819;DHT22;6474;53.474;9.894;2023-11-18T03:49:22;4.30;92.60
12819;DHT22;6474;53.474;9.894;2023-11-18T03:51:52;4.30;92.50
12819;DHT22;6474;53.474;9.894;2023-11-18T03:54:20;4.30;92.50
12819;DHT22;6474;53.474;9.894;2023-11-18T03:56:47;4.30;92.50
12819;DHT22;6474;53.474;9.894;2023-11-18T03:59:15;4.30;92.50
12819;DHT22;6474;53.474;9.894;2023-11-18T04:01:43;4.20;92.40
12819;DHT22;6474;53.474;9.894;2023-11-18T04:04:11;4.20;92.30
12819;DHT22;6474;53.474;9.894;2023-11-18T04:06:39;4.10;92.20
12819;DHT22;6474;53.474;9.894;2023-11-18T04:09:08;4.10;92.20
12819;DHT22;6474;53.474;9.894;2023-11-18T04:11:37;4.00;92.20
12819;DHT22;6474;53.474;9.894;2023-11-18T04:14:05;4.00;92.20
12819;DHT22;6474;53.474;9.894;2023-11-18T04:16:34;3.90;92.10
12819;DHT22;6474;53.474;9.894;2023-11-18T04:19:02;3.80;92.10
12819;DHT22;6474;53.474;9.894;2023-11-18T04:21:30;3.70;92.00
12819;DHT22;6474;53.474;9.894;2023-11-18T04:23:57;3.60;92.00
12819;DHT22;6474;53.474;9.894;2023-11-18T04:26:29;3.60;92.00
12819;DHT22;6474;53.474;9.894;2023-11-18T04:28:57;3.50;92.00
12819;DHT22;6474;53.474;9.894;2023-11-18T04:31:25;3.40;92.00
12819;DHT22;6474;53.474;9.894;2023-11-18T04:33:53;3.40;92.00
12819;DHT22;6474;53.474;9.894;2023-11-18T04:36:22;3.30;91.90
12819;DHT22;6474;53.474;9.894;2023-11-18T04:38:50;3.30;91.90
12819;DHT22;6474;53.474;9.894;2023-11-18T04:41:18;3.20;91.90
12819;DHT22;6474;53.474;9.894;2023-11-18T04:43:47;3.10;91.90
12819;DHT22;6474;53.474;9.894;2023-11-18T04:46:17;3.10;91.90
12819;DHT22;6474;53.474;9.894;2023-11-18T04:48:46;3.00;91.90
12819;DHT22;6474;53.474;9.894;2023-11-18T04:51:14;2.90;91.90
12819;DHT22;6474;53.474;9.894;2023-11-18T04:53:44;2.90;92.00
12819;DHT22;6474;53.474;9.894;2023-11-18T04:56:12;2.90;92.10
12819;DHT22;6474;53.474;9.894;2023-11-18T04:58:43;2.90;92.20
12819;DHT22;6474;53.474;9.894;2023-11-18T05:01:14;2.90;92.20
12819;DHT22;6474;53.474;9.894;2023-11-18T05:03:42;2.90;92.20
12819;DHT22;6474;53.474;9.894;2023-11-18T05:06:10;2.90;92.10
12819;DHT22;6474;53.474;9.894;2023-11-18T05:08:38;2.90;92.00
12819;DHT22;6474;53.474;9.894;2023-11-18T05:11:06;2.90;92.10
12819;DHT22;6474;53.474;9.894;2023-11-18T05:13:34;2.80;92.00
12819;DHT22;6474;53.474;9.894;2023-11-18T05:16:02;2.80;92.10
12819;DHT22;6474;53.474;9.894;2023-11-18T05:18:32;2.80;92.10
12819;DHT22;6474;53.474;9.894;2023-11-18T05:21:03;2.80;92.00
12819;DHT22;6474;53.474;9.894;2023-11-18T05:23:34;2.80;92.00
12819;DHT22;6474;53.474;9.894;2023-11-18T05:26:02;2.70;91.90
12819;DHT22;6474;53.474;9.894;2023-11-18T05:28:31;2.70;91.90
12819;DHT22;6474;53.474;9.894;2023-11-18T05:31:00;2.60;91.90
12819;DHT22;6474;53.474;9.894;2023-11-18T05:33:29;2.60;92.00
12819;DHT22;6474;53.474;9.894;2023-11-18T05:35:59;2.60;92.00
12819;DHT22;6474;53.474;9.894;2023-11-18T05:38:27;2.60;92.00
12819;DHT22;6474;53.474;9.894;2023-11-18T05:40:58;2.50;92.00
12819;DHT22;6474;53.474;9.894;2023-11-18T05:43:29;2.50;92.00
12819;DHT22;6474;53.474;9.894;2023-11-18T05:46:04;2.50;92.00
12819;DHT22;6474;53.474;9.894;2023-11-18T05:48:47;2.50;92.00
12819;DHT22;6474;53.474;9.894;2023-11-18T05:51:20;2.40;91.90
12819;DHT22;6474;53.474;9.894;2023-11-18T05:53:50;2.40;91.90
12819;DHT22;6474;53.474;9.894;2023-11-18T05:56:19;2.40;91.90
12819;DHT22;6474;53.474;9.894;2023-11-18T05:58:50;2.40;91.90
12819;DHT22;6474;53.474;9.894;2023-11-18T06:01:21;2.30;91.90
12819;DHT22;6474;53.474;9.894;2023-11-18T06:03:49;2.30;91.80
12819;DHT22;6474;53.474;9.894;2023-11-18T06:06:19;2.30;91.90
12819;DHT22;6474;53.474;9.894;2023-11-18T06:08:50;2.30;92.00
12819;DHT22;6474;53.474;9.894;2023-11-18T06:11:20;2.20;92.00
12819;DHT22;6474;53.474;9.894;2023-11-18T06:13:51;2.30;92.10
12819;DHT22;6474;53.474;9.894;2023-11-18T06:16:20;2.20;92.00
12819;DHT22;6474;53.474;9.894;2023-11-18T06:18:50;2.30;92.40
12819;DHT22;6474;53.474;9.894;2023-11-18T06:21:20;2.30;92.10
12819;DHT22;6474;53.474;9.894;2023-11-18T06:23:52;2.30;92.10
12819;DHT22;6474;53.474;9.894;2023-11-18T06:26:21;2.30;92.10
12819;DHT22;6474;53.474;9.894;2023-11-18T06:28:49;2.30;92.10
12819;DHT22;6474;53.474;9.894;2023-11-18T06:31:17;2.30;92.10
12819;DHT22;6474;53.474;9.894;2023-11-18T06:33:47;2.30;92.20
12819;DHT22;6474;53.474;9.894;2023-11-18T06:36:21;2.30;92.20
12819;DHT22;6474;53.474;9.894;2023-11-18T06:38:51;2.30;92.20
12819;DHT22;6474;53.474;9.894;2023-11-18T06:41:20;2.40;92.20
12819;DHT22;6474;53.474;9.894;2023-11-18T06:43:51;2.40;92.20
12819;DHT22;6474;53.474;9.894;2023-11-18T06:46:28;2.40;92.10
12819;DHT22;6474;53.474;9.894;2023-11-18T06:48:58;2.40;92.10
12819;DHT22;6474;53.474;9.894;2023-11-18T06:51:32;2.40;92.00
12819;DHT22;6474;53.474;9.894;2023-11-18T06:54:02;2.40;92.00
12819;DHT22;6474;53.474;9.894;2023-11-18T06:56:36;2.40;92.00
12819;DHT22;6474;53.474;9.894;2023-11-18T06:59:05;2.30;91.90
12819;DHT22;6474;53.474;9.894;2023-11-18T07:01:33;2.30;91.90
12819;DHT22;6474;53.474;9.894;2023-11-18T07:04:02;2.30;91.90
12819;DHT22;6474;53.474;9.894;2023-11-18T07:06:32;2.30;91.90
12819;DHT22;6474;53.474;9.894;2023-11-18T07:09:05;2.20;91.90
12819;DHT22;6474;53.474;9.894;2023-11-18T07:11:39;2.20;91.90
12819;DHT22;6474;53.474;9.894;2023-11-18T07:14:08;2.20;91.90
12819;DHT22;6474;53.474;9.894;2023-11-18T07:16:38;2.20;91.90
12819;DHT22;6474;53.474;9.894;2023-11-18T07:19:06;2.20;91.90
12819;DHT22;6474;53.474;9.894;2023-11-18T07:21:36;2.20;91.90
12819;DHT22;6474;53.474;9.894;2023-11-18T07:24:04;2.20;91.90
12819;DHT22;6474;53.474;9.894;2023-11-18T07:26:33;2.20;92.00
12819;DHT22;6474;53.474;9.894;2023-11-18T07:29:01;2.20;92.00
12819;DHT22;6474;53.474;9.894;2023-11-18T07:31:29;2.20;92.00
12819;DHT22;6474;53.474;9.894;2023-11-18T07:33:57;2.20;92.00
12819;DHT22;6474;53.474;9.894;2023-11-18T07:36:25;2.20;92.00
12819;DHT22;6474;53.474;9.894;2023-11-18T07:38:54;2.20;92.00
12819;DHT22;6474;53.474;9.894;2023-11-18T07:41:22;2.20;92.30
12819;DHT22;6474;53.474;9.894;2023-11-18T07:43:51;2.20;92.10
12819;DHT22;6474;53.474;9.894;2023-11-18T07:46:22;2.30;92.10
12819;DHT22;6474;53.474;9.894;2023-11-18T07:48:51;2.30;92.10
12819;DHT22;6474;53.474;9.894;2023-11-18T07:51:20;2.30;92.10
12819;DHT22;6474;53.474;9.894;2023-11-18T07:53:50;2.40;92.20
12819;DHT22;6474;53.474;9.894;2023-11-18T07:56:19;2.40;92.20
12819;DHT22;6474;53.474;9.894;2023-11-18T07:58:49;2.40;92.20
12819;DHT22;6474;53.474;9.894;2023-11-18T08:01:19;2.50;92.30
12819;DHT22;6474;53.474;9.894;2023-11-18T08:03:48;2.60;92.30
12819;DHT22;6474;53.474;9.894;2023-11-18T08:06:18;2.60;92.30
12819;DHT22;6474;53.474;9.894;2023-11-18T08:08:45;2.70;92.30
12819;DHT22;6474;53.474;9.894;2023-11-18T08:11:15;2.80;92.30
12819;DHT22;6474;53.474;9.894;2023-11-18T08:13:45;2.90;92.40
12819;DHT22;6474;53.474;9.894;2023-11-18T08:16:13;2.90;92.40
12819;DHT22;6474;53.474;9.894;2023-11-18T08:18:42;3.00;92.40
12819;DHT22;6474;53.474;9.894;2023-11-18T08:21:11;3.10;92.40
12819;DHT22;6474;53.474;9.894;2023-11-18T08:23:39;3.20;92.40
12819;DHT22;6474;53.474;9.894;2023-11-18T08:26:08;3.30;92.40
12819;DHT22;6474;53.474;9.894;2023-11-18T08:28:36;3.30;92.30
12819;DHT22;6474;53.474;9.894;2023-11-18T08:31:05;3.40;92.60
12819;DHT22;6474;53.474;9.894;2023-11-18T08:33:33;3.50;92.30
12819;DHT22;6474;53.474;9.894;2023-11-18T08:36:01;3.50;92.30
12819;DHT22;6474;53.474;9.894;2023-11-18T08:38:29;3.50;92.20
12819;DHT22;6474;53.474;9.894;2023-11-18T08:40:57;3.60;92.20
12819;DHT22;6474;53.474;9.894;2023-11-18T08:43:25;3.60;92.10
12819;DHT22;6474;53.474;9.894;2023-11-18T08:45:55;3.60;92.10
12819;DHT22;6474;53.474;9.894;2023-11-18T08:48:24;3.60;92.10
12819;DHT22;6474;53.474;9.894;2023-11-18T08:50:52;3.60;92.20
12819;DHT22;6474;53.474;9.894;2023-11-18T08:53:20;3.60;92.50
12819;DHT22;6474;53.474;9.894;2023-11-18T08:55:53;3.70;92.20
12819;DHT22;6474;53.474;9.894;2023-11-18T08:58:22;3.70;92.20
12819;DHT22;6474;53.474;9.894;2023-11-18T09:00:56;3.70;92.20
12819;DHT22;6474;53.474;9.894;2023-11-18T09:03:33;3.80;92.30
12819;DHT22;6474;53.474;9.894;2023-11-18T09:06:10;3.80;92.30
12819;DHT22;6474;53.474;9.894;2023-11-18T09:08:46;3.90;92.30
12819;DHT22;6474;53.474;9.894;2023-11-18T09:11:21;3.90;92.30
12819;DHT22;6474;53.474;9.894;2023-11-18T09:13:50;4.00;92.40
12819;DHT22;6474;53.474;9.894;2023-11-18T09:16:20;4.00;92.50
12819;DHT22;6474;53.474;9.894;2023-11-18T09:18:51;4.10;92.50
12819;DHT22;6474;53.474;9.894;2023-11-18T09:21:19;4.20;92.50
12819;DHT22;6474;53.474;9.894;2023-11-18T09:23:52;4.20;92.40
12819;DHT22;6474;53.474;9.894;2023-11-18T09:26:20;4.30;92.40
12819;DHT22;6474;53.474;9.894;2023-11-18T09:28:48;4.40;92.40
12819;DHT22;6474;53.474;9.894;2023-11-18T09:31:17;4.40;92.40
12819;DHT22;6474;53.474;9.894;2023-11-18T09:33:45;4.40;92.40
12819;DHT22;6474;53.474;9.894;2023-11-18T09:36:20;4.50;92.40
12819;DHT22;6474;53.474;9.894;2023-11-18T09:38:49;4.60;92.40
12819;DHT22;6474;53.474;9.894;2023-11-18T09:41:18;4.60;92.40
12819;DHT22;6474;53.474;9.894;2023-11-18T09:43:46;4.70;92.50
12819;DHT22;6474;53.474;9.894;2023-11-18T09:46:23;4.70;92.50
12819;DHT22;6474;53.474;9.894;2023-11-18T09:48:57;4.70;92.50
12819;DHT22;6474;53.474;9.894;2023-11-18T09:51:44;4.80;92.50
12819;DHT22;6474;53.474;9.894;2023-11-18T09:54:19;4.80;92.50
12819;DHT22;6474;53.474;9.894;2023-11-18T09:56:56;4.90;92.60
12819;DHT22;6474;53.474;9.894;2023-11-18T09:59:43;4.90;92.60
12819;DHT22;6474;53.474;9.894;2023-11-18T10:02:22;5.00;92.60
12819;DHT22;6474;53.474;9.894;2023-11-18T10:04:52;5.00;92.60
12819;DHT22;6474;53.474;9.894;2023-11-18T10:07:26;5.10;92.70
12819;DHT22;6474;53.474;9.894;2023-11-18T10:09:54;5.10;92.70
12819;DHT22;6474;53.474;9.894;2023-11-18T10:12:25;5.10;92.70
12819;DHT22;6474;53.474;9.894;2023-11-18T10:14:53;5.10;92.70
12819;DHT22;6474;53.474;9.894;2023-11-18T10:17:22;5.20;92.70
12819;DHT22;6474;53.474;9.894;2023-11-18T10:19:53;5.20;92.70
12819;DHT22;6474;53.474;9.894;2023-11-18T10:22:26;5.20;92.70
12819;DHT22;6474;53.474;9.894;2023-11-18T10:24:55;5.20;92.70
12819;DHT22;6474;53.474;9.894;2023-11-18T10:27:24;5.30;92.80
12819;DHT22;6474;53.474;9.894;2023-11-18T10:29:55;5.30;92.80
12819;DHT22;6474;53.474;9.894;2023-11-18T10:32:24;5.30;92.80
12819;DHT22;6474;53.474;9.894;2023-11-18T10:34:56;5.30;92.80
12819;DHT22;6474;53.474;9.894;2023-11-18T10:37:26;5.30;92.80
12819;DHT22;6474;53.474;9.894;2023-11-18T10:39:58;5.30;92.80
12819;DHT22;6474;53.474;9.894;2023-11-18T10:42:31;5.40;92.80
12819;DHT22;6474;53.474;9.894;2023-11-18T10:45:00;5.40;92.80
12819;DHT22;6474;53.474;9.894;2023-11-18T10:47:32;5.40;92.80
12819;DHT22;6474;53.474;9.894;2023-11-18T10:50:03;5.40;92.80
12819;DHT22;6474;53.474;9.894;2023-11-18T10:52:33;5.50;92.90
12819;DHT22;6474;53.474;9.894;2023-11-18T10:55:09;5.50;92.90
12819;DHT22;6474;53.474;9.894;2023-11-18T10:57:40;5.50;92.80
12819;DHT22;6474;53.474;9.894;2023-11-18T11:00:11;5.50;92.80
12819;DHT22;6474;53.474;9.894;2023-11-18T11:02:41;5.50;92.80
12819;DHT22;6474;53.474;9.894;2023-11-18T11:05:10;5.50;92.80
12819;DHT22;6474;53.474;9.894;2023-11-18T11:07:49;5.60;92.90
12819;DHT22;6474;53.474;9.894;2023-11-18T11:10:18;5.60;92.90
12819;DHT22;6474;53.474;9.894;2023-11-18T11:12:55;5.60;92.90
12819;DHT22;6474;53.474;9.894;2023-11-18T11:15:29;5.60;92.90
12819;DHT22;6474;53.474;9.894;2023-11-18T11:18:16;5.60;92.90
12819;DHT22;6474;53.474;9.894;2023-11-18T11:20:57;5.60;92.80
12819;DHT22;6474;53.474;9.894;2023-11-18T11:23:38;5.60;92.80
12819;DHT22;6474;53.474;9.894;2023-11-18T11:26:23;5.60;92.80
12819;DHT22;6474;53.474;9.894;2023-11-18T11:29:01;5.70;92.90
12819;DHT22;6474;53.474;9.894;2023-11-18T11:31:35;5.70;92.90
12819;DHT22;6474;53.474;9.894;2023-11-18T11:34:06;5.70;92.90
12819;DHT22;6474;53.474;9.894;2023-11-18T11:36:41;5.70;92.90
12819;DHT22;6474;53.474;9.894;2023-11-18T11:39:11;5.70;92.90
12819;DHT22;6474;53.474;9.894;2023-11-18T11:41:52;5.80;93.00
12819;DHT22;6474;53.474;9.894;2023-11-18T11:44:21;5.80;93.00
12819;DHT22;6474;53.474;9.894;2023-11-18T11:46:57;5.90;93.00
12819;DHT22;6474;53.474;9.894;2023-11-18T11:49:35;5.90;93.00
12819;DHT22;6474;53.474;9.894;2023-11-18T11:52:09;5.90;92.90
12819;DHT22;6474;53.474;9.894;2023-11-18T11:54:45;5.90;92.90
12819;DHT22;6474;53.474;9.894;2023-11-18T11:57:16;5.90;92.80
12819;DHT22;6474;53.474;9.894;2023-11-18T11:59:56;5.90;92.80
12819;DHT22;6474;53.474;9.894;2023-11-18T12:02:25;6.00;92.80
12819;DHT22;6474;53.474;9.894;2023-11-18T12:04:56;5.90;92.70
12819;DHT22;6474;53.474;9.894;2023-11-18T12:07:26;5.90;92.80
12819;DHT22;6474;53.474;9.894;2023-11-18T12:09:59;5.90;92.80
12819;DHT22;6474;53.474;9.894;2023-11-18T12:12:32;5.90;92.80
12819;DHT22;6474;53.474;9.894;2023-11-18T12:15:00;5.90;92.90
12819;DHT22;6474;53.474;9.894;2023-11-18T12:20:48;6.00;93.00
12819;DHT22;6474;53.474;9.894;2023-11-18T12:23:21;6.00;93.00
12819;DHT22;6474;53.474;9.894;2023-11-18T12:25:54;6.00;93.00
12819;DHT22;6474;53.474;9.894;2023-11-18T12:28:28;6.00;93.00
12819;DHT22;6474;53.474;9.894;2023-11-18T12:30:58;6.00;93.00
12819;DHT22;6474;53.474;9.894;2023-11-18T12:34:00;6.00;93.00
12819;DHT22;6474;53.474;9.894;2023-11-18T12:36:56;6.10;93.00
12819;DHT22;6474;53.474;9.894;2023-11-18T12:39:51;6.00;93.00
12819;DHT22;6474;53.474;9.894;2023-11-18T12:42:55;6.00;93.00
12819;DHT22;6474;53.474;9.894;2023-11-18T12:45:44;6.00;93.00
12819;DHT22;6474;53.474;9.894;2023-11-18T12:48:23;6.00;93.00
12819;DHT22;6474;53.474;9.894;2023-11-18T12:50:54;6.00;92.90
12819;DHT22;6474;53.474;9.894;2023-11-18T12:53:23;6.00;92.90
12819;DHT22;6474;53.474;9.894;2023-11-18T12:55:52;5.90;92.90
12819;DHT22;6474;53.474;9.894;2023-11-18T12:58:21;5.90;92.80
12819;DHT22;6474;53.474;9.894;2023-11-18T13:00:50;5.80;92.80
12819;DHT22;6474;53.474;9.894;2023-11-18T13:03:18;5.80;92.80
12819;DHT22;6474;53.474;9.894;2023-11-18T13:05:47;5.80;92.80
12819;DHT22;6474;53.474;9.894;2023-11-18T13:08:15;5.80;92.80
12819;DHT22;6474;53.474;9.894;2023-11-18T13:10:43;5.80;92.80
12819;DHT22;6474;53.474;9.894;2023-11-18T13:13:11;5.70;92.80
12819;DHT22;6474;53.474;9.894;2023-11-18T13:15:46;5.70;92.80
12819;DHT22;6474;53.474;9.894;2023-11-18T13:18:17;5.70;92.80
12819;DHT22;6474;53.474;9.894;2023-11-18T13:20:54;5.70;92.80
12819;DHT22;6474;53.474;9.894;2023-11-18T13:23:25;5.80;92.90
12819;DHT22;6474;53.474;9.894;2023-11-18T13:25:57;5.80;92.90
12819;DHT22;6474;53.474;9.894;2023-11-18T13:28:27;5.70;92.80
12819;DHT22;6474;53.474;9.894;2023-11-18T13:30:56;5.70;92.80
12819;DHT22;6474;53.474;9.894;2023-11-18T13:33:24;5.70;92.90
12819;DHT22;6474;53.474;9.894;2023-11-18T13:35:52;5.70;92.90
12819;DHT22;6474;53.474;9.894;2023-11-18T13:38:20;5.70;93.20
12819;DHT22;6474;53.474;9.894;2023-11-18T13:40:48;5.70;92.90
12819;DHT22;6474;53.474;9.894;2023-11-18T13:43:16;5.80;93.00
12819;DHT22;6474;53.474;9.894;2023-11-18T13:45:50;5.80;92.90
12819;DHT22;6474;53.474;9.894;2023-11-18T13:48:21;5.70;92.90
12819;DHT22;6474;53.474;9.894;2023-11-18T13:50:51;5.70;92.90
12819;DHT22;6474;53.474;9.894;2023-11-18T13:53:20;5.70;92.90
12819;DHT22;6474;53.474;9.894;2023-11-18T13:55:48;5.70;92.80
12819;DHT22;6474;53.474;9.894;2023-11-18T13:58:16;5.70;92.90
12819;DHT22;6474;53.474;9.894;2023-11-18T14:00:46;5.70;92.80
12819;DHT22;6474;53.474;9.894;2023-11-18T14:03:15;5.70;93.20
12819;DHT22;6474;53.474;9.894;2023-11-18T14:05:44;5.60;92.80
12819;DHT22;6474;53.474;9.894;2023-11-18T14:08:17;5.60;92.80
12819;DHT22;6474;53.474;9.894;2023-11-18T14:10:46;5.60;92.80
12819;DHT22;6474;53.474;9.894;2023-11-18T14:13:28;5.60;92.80
12819;DHT22;6474;53.474;9.894;2023-11-18T14:15:58;5.60;92.80
12819;DHT22;6474;53.474;9.894;2023-11-18T14:18:26;5.60;92.80
12819;DHT22;6474;53.474;9.894;2023-11-18T14:20:56;5.60;92.80
12819;DHT22;6474;53.474;9.894;2023-11-18T14:23:24;5.60;92.80
12819;DHT22;6474;53.474;9.894;2023-11-18T14:25:52;5.60;92.80
12819;DHT22;6474;53.474;9.894;2023-11-18T14:28:20;5.60;92.80
12819;DHT22;6474;53.474;9.894;2023-11-18T14:30:51;5.50;92.80
12819;DHT22;6474;53.474;9.894;2023-11-18T14:33:19;5.50;93.00
12819;DHT22;6474;53.474;9.894;2023-11-18T14:35:47;5.50;92.80
12819;DHT22;6474;53.474;9.894;2023-11-18T14:38:16;5.50;92.80
12819;DHT22;6474;53.474;9.894;2023-11-18T14:40:46;5.50;92.80
12819;DHT22;6474;53.474;9.894;2023-11-18T14:43:15;5.50;92.80
12819;DHT22;6474;53.474;9.894;2023-11-18T14:45:43;5.50;92.80
12819;DHT22;6474;53.474;9.894;2023-11-18T14:48:11;5.50;92.70
12819;DHT22;6474;53.474;9.894;2023-11-18T14:50:40;5.50;92.70
12819;DHT22;6474;53.474;9.894;2023-11-18T14:53:08;5.40;92.70
12819;DHT22;6474;53.474;9.894;2023-11-18T14:55:37;5.50;92.70
12819;DHT22;6474;53.474;9.894;2023-11-18T14:58:06;5.40;92.70
12819;DHT22;6474;53.474;9.894;2023-11-18T15:00:34;5.40;92.70
12819;DHT22;6474;53.474;9.894;2023-11-18T15:03:03;5.40;92.70
12819;DHT22;6474;53.474;9.894;2023-11-18T15:05:33;5.40;92.70
12819;DHT22;6474;53.474;9.894;2023-11-18T15:08:01;5.40;92.70
12819;DHT22;6474;53.474;9.894;2023-11-18T15:10:30;5.40;92.70
12819;DHT22;6474;53.474;9.894;2023-11-18T15:12:59;5.40;92.70
12819;DHT22;6474;53.474;9.894;2023-11-18T15:15:29;5.40;92.70
12819;DHT22;6474;53.474;9.894;2023-11-18T15:18:01;5.40;92.70
12819;DHT22;6474;53.474;9.894;2023-11-18T15:20:32;5.40;92.70
12819;DHT22;6474;53.474;9.894;2023-11-18T15:23:01;5.40;92.70
12819;DHT22;6474;53.474;9.894;2023-11-18T15:25:31;5.40;92.70
12819;DHT22;6474;53.474;9.894;2023-11-18T15:28:02;5.40;92.70
12819;DHT22;6474;53.474;9.894;2023-11-18T15:30:32;5.40;93.00
12819;DHT22;6474;53.474;9.894;2023-11-18T15:33:00;5.40;92.70
12819;DHT22;6474;53.474;9.894;2023-11-18T15:35:28;5.40;92.70
12819;DHT22;6474;53.474;9.894;2023-11-18T15:37:57;5.30;92.70
12819;DHT22;6474;53.474;9.894;2023-11-18T15:40:25;5.40;92.70
12819;DHT22;6474;53.474;9.894;2023-11-18T15:42:53;5.40;92.70
12819;DHT22;6474;53.474;9.894;2023-11-18T15:45:24;5.40;92.70
12819;DHT22;6474;53.474;9.894;2023-11-18T15:47:52;5.40;92.70
12819;DHT22;6474;53.474;9.894;2023-11-18T15:50:20;5.40;92.70
12819;DHT22;6474;53.474;9.894;2023-11-18T15:52:49;5.40;92.70
12819;DHT22;6474;53.474;9.894;2023-11-18T15:55:19;5.40;92.70
12819;DHT22;6474;53.474;9.894;2023-11-18T15:57:48;5.40;92.70
12819;DHT22;6474;53.474;9.894;2023-11-18T16:00:20;5.40;92.70
12819;DHT22;6474;53.474;9.894;2023-11-18T16:02:51;5.40;92.70
12819;DHT22;6474;53.474;9.894;2023-11-18T16:05:23;5.40;92.70
12819;DHT22;6474;53.474;9.894;2023-11-18T16:07:52;5.40;92.70
12819;DHT22;6474;53.474;9.894;2023-11-18T16:10:22;5.40;92.70
12819;DHT22;6474;53.474;9.894;2023-11-18T16:12:51;5.40;92.70
12819;DHT22;6474;53.474;9.894;2023-11-18T16:15:20;5.40;92.70
12819;DHT22;6474;53.474;9.894;2023-11-18T16:17:50;5.40;92.70
12819;DHT22;6474;53.474;9.894;2023-11-18T16:20:21;5.40;92.70
12819;DHT22;6474;53.474;9.894;2023-11-18T16:22:50;5.40;92.70
12819;DHT22;6474;53.474;9.894;2023-11-18T16:25:18;5.40;92.60